Time;durP1;ratioP1;P1;durP2;ratioP2;P2;SDS_P1;SDS_P2;PMS_P1;PMS_P2;Temp;Humidity;BMP_temperature;BMP_pressure;BME280_temperature;BME280_humidity;BME280_pressure;Samples;Min_cycle;Max_cycle;Signal;HPM_P1;HPM_P2
2022/02/16 00:01:32;;;;;;;37.65;24.85;;;;;;;4.91;93.56;95108.78;5063378;28;20031;-75
2022/02/16 00:03:58;;;;;;;32.70;24.50;;;;;;;4.59;94.94;95112.31;5064669;28;20028;-75
2022/02/16 00:06:23;;;;;;;39.63;26.33;;;;;;;4.56;95.14;95110.03;5064154;28;20481;-75
2022/02/16 00:08:48;;;;;;;34.05;22.60;;;;;;;4.84;93.50;95099.97;5066862;28;20035;-78
2022/02/16 00:11:14;;;;;;;32.95;23.45;;;;;;;4.83;93.35;95103.47;5066591;28;20059;-75
2022/02/16 00:13:39;;;;;;;34.75;19.13;;;;;;;4.96;91.96;95093.78;5068847;28;20143;-76
2022/02/16 00:16:08;;;;;;;26.63;18.42;;;;;;;5.20;89.53;95086.50;5069873;28;20084;-75
2022/02/16 00:18:37;;;;;;;28.10;20.40;;;;;;;4.92;91.05;95080.41;5069452;28;20420;-75
2022/02/16 00:21:05;;;;;;;28.05;21.70;;;;;;;4.72;92.39;95094.13;5065595;28;20028;-75
2022/02/16 00:23:30;;;;;;;29.08;21.35;;;;;;;4.68;92.61;95091.03;5067755;28;20046;-75
2022/02/16 00:25:56;;;;;;;34.70;21.70;;;;;;;4.49;94.06;95091.00;5068648;28;20389;-74
2022/02/16 00:28:22;;;;;;;31.38;23.15;;;;;;;4.35;95.29;95093.91;5066021;28;20094;-75
2022/02/16 00:30:47;;;;;;;29.85;23.42;;;;;;;4.35;96.07;95093.09;5068622;28;20502;-76
2022/02/16 00:33:13;;;;;;;35.72;25.88;;;;;;;4.18;96.65;95074.00;5051597;28;20024;-76
2022/02/16 00:35:39;;;;;;;34.13;24.40;;;;;;;4.20;96.65;95072.94;5067136;28;20110;-76
2022/02/16 00:38:05;;;;;;;37.03;25.90;;;;;;;4.32;96.89;95081.34;5067656;28;20020;-77
2022/02/16 00:40:30;;;;;;;28.83;20.48;;;;;;;4.59;95.65;95067.94;5065898;28;20029;-75
2022/02/16 00:42:56;;;;;;;30.67;23.77;;;;;;;4.46;95.53;95082.75;5067609;28;20066;-75
2022/02/16 00:45:21;;;;;;;29.83;19.85;;;;;;;4.43;95.88;95080.44;5065971;28;20024;-76
2022/02/16 00:47:47;;;;;;;29.58;22.85;;;;;;;4.59;95.04;95073.06;5067215;28;20029;-76
2022/02/16 00:50:13;;;;;;;26.58;20.88;;;;;;;4.60;93.17;95065.22;5066118;28;20032;-76
2022/02/16 00:52:39;;;;;;;26.80;19.63;;;;;;;4.58;93.34;95066.31;5066891;28;20111;-76
2022/02/16 00:55:06;;;;;;;26.00;20.80;;;;;;;4.56;93.15;95068.22;5067031;28;20139;-76
2022/02/16 00:57:32;;;;;;;25.17;20.20;;;;;;;4.52;92.80;95061.72;5065983;28;20482;-75
2022/02/16 00:59:58;;;;;;;29.85;21.75;;;;;;;4.28;94.58;95056.09;5067527;28;20036;-75
2022/02/16 01:02:23;;;;;;;32.00;21.58;;;;;;;4.27;95.36;95072.44;5065360;28;20044;-75
2022/02/16 01:04:49;;;;;;;30.80;21.77;;;;;;;4.34;95.36;95079.44;5066852;28;20047;-75
2022/02/16 01:07:14;;;;;;;32.60;21.48;;;;;;;4.20;95.65;95056.75;5065640;28;20525;-75
2022/02/16 01:09:40;;;;;;;24.65;20.30;;;;;;;3.93;96.96;95059.88;5066909;28;20069;-75
2022/02/16 01:12:05;;;;;;;28.05;21.42;;;;;;;3.81;98.60;95068.59;5082871;28;20115;-75
2022/02/16 01:14:31;;;;;;;23.55;19.17;;;;;;;3.71;99.00;95070.28;5065788;28;20035;-75
2022/02/16 01:16:56;;;;;;;28.98;21.85;;;;;;;3.54;100.00;95069.09;5067219;28;20028;-75
2022/02/16 01:19:22;;;;;;;31.85;22.85;;;;;;;3.43;100.00;95076.84;5064537;28;20040;-76
2022/02/16 01:21:47;;;;;;;31.63;22.77;;;;;;;3.30;100.00;95077.97;5082608;28;20540;-75
2022/02/16 01:24:13;;;;;;;32.78;25.35;;;;;;;3.25;100.00;95072.38;5066180;28;20025;-75
2022/02/16 01:26:38;;;;;;;31.20;23.38;;;;;;;3.18;100.00;95065.22;5069016;28;20398;-75
2022/02/16 01:29:04;;;;;;;33.80;23.33;;;;;;;3.07;100.00;95057.59;5066427;28;20482;-75
2022/02/16 01:31:30;;;;;;;35.17;23.88;;;;;;;3.07;100.00;95072.13;5067907;28;20033;-75
2022/02/16 01:33:55;;;;;;;37.00;23.63;;;;;;;2.96;100.00;95061.94;5067223;28;20539;-75
2022/02/16 01:36:21;;;;;;;34.33;24.23;;;;;;;3.05;100.00;95053.53;5083174;28;20534;-75
2022/02/16 01:38:46;;;;;;;37.58;26.27;;;;;;;2.91;100.00;95044.41;5051310;28;20817;-75
2022/02/16 01:41:16;;;;;;;38.15;25.77;;;;;;;2.87;100.00;95029.41;5066501;28;20051;-75
2022/02/16 01:43:50;;;;;;;;;;;;;;;2.98;100.00;95047.28;5068484;28;20441;-75
2022/02/16 01:46:15;;;;;;;34.42;23.65;;;;;;;2.95;100.00;95038.13;5049774;28;20038;-75
2022/02/16 01:48:41;;;;;;;32.72;24.38;;;;;;;3.11;100.00;95046.16;5066983;28;20115;-75
2022/02/16 01:51:06;;;;;;;33.22;23.67;;;;;;;3.04;100.00;95042.50;5066570;28;20024;-75
2022/02/16 01:53:34;;;;;;;36.03;25.85;;;;;;;2.99;100.00;95034.38;5066719;28;20020;-75
2022/02/16 01:55:59;;;;;;;36.60;25.48;;;;;;;2.95;100.00;95019.41;5068063;28;20115;-75
2022/02/16 01:58:25;;;;;;;37.33;24.17;;;;;;;3.07;100.00;95020.97;5066242;28;20127;-76
2022/02/16 02:00:50;;;;;;;30.38;23.13;;;;;;;3.14;100.00;95014.44;5067868;28;20405;-75
2022/02/16 02:03:16;;;;;;;32.75;22.30;;;;;;;3.14;100.00;95010.13;5066328;28;20480;-75
2022/02/16 02:05:41;;;;;;;30.92;23.15;;;;;;;3.04;100.00;95005.88;5066646;28;20052;-75
2022/02/16 02:08:08;;;;;;;28.77;21.33;;;;;;;3.31;100.00;95005.38;5067450;28;20028;-75
2022/02/16 02:10:34;;;;;;;33.33;22.17;;;;;;;3.30;100.00;94996.91;5067245;28;20111;-75
2022/02/16 02:13:00;;;;;;;27.55;19.35;;;;;;;3.51;100.00;94990.00;5068023;28;20061;-76
2022/02/16 02:15:25;;;;;;;28.75;21.42;;;;;;;3.37;100.00;94989.53;5083130;28;20039;-75
2022/02/16 02:17:51;;;;;;;29.23;21.50;;;;;;;3.23;100.00;94985.53;5066236;28;20046;-75
2022/02/16 02:20:20;;;;;;;31.27;22.80;;;;;;;3.28;100.00;94991.06;5065772;28;20066;-75
2022/02/16 02:22:46;;;;;;;30.23;21.42;;;;;;;3.26;100.00;94990.41;5050279;28;20133;-75
2022/02/16 02:25:11;;;;;;;33.97;23.40;;;;;;;3.30;100.00;94996.91;5065983;28;20478;-75
2022/02/16 02:27:37;;;;;;;32.00;22.48;;;;;;;3.27;100.00;94993.78;5067291;28;20448;-75
2022/02/16 02:30:03;;;;;;;29.05;23.23;;;;;;;3.13;100.00;94994.88;5066223;28;20025;-76
2022/02/16 02:32:28;;;;;;;32.88;22.88;;;;;;;3.46;100.00;94994.69;5065314;28;20025;-75
2022/02/16 02:34:54;;;;;;;34.58;22.30;;;;;;;3.34;100.00;94995.69;5066321;28;20036;-75
2022/02/16 02:37:19;;;;;;;30.10;21.92;;;;;;;3.11;100.00;94997.56;5065621;28;20024;-75
2022/02/16 02:39:45;;;;;;;32.35;22.63;;;;;;;2.91;100.00;95000.13;5066783;28;20062;-76
2022/02/16 02:42:10;;;;;;;33.03;25.85;;;;;;;2.95;100.00;94994.66;5065486;28;20024;-75
2022/02/16 02:44:35;;;;;;;35.60;23.33;;;;;;;3.09;100.00;94993.50;5050286;28;20035;-75
2022/02/16 02:47:01;;;;;;;32.83;25.30;;;;;;;3.09;100.00;94989.22;5065636;28;20029;-75
2022/02/16 02:49:27;;;;;;;33.63;23.02;;;;;;;2.78;100.00;94991.81;5065941;28;20029;-75
2022/02/16 02:51:52;;;;;;;36.30;24.42;;;;;;;3.01;100.00;95001.00;5066237;28;20517;-75
2022/02/16 02:54:18;;;;;;;39.58;26.60;;;;;;;3.09;100.00;95004.56;5082497;28;20497;-75
2022/02/16 02:56:44;;;;;;;36.70;25.02;;;;;;;3.19;100.00;95000.31;5067046;28;20024;-75
2022/02/16 02:59:09;;;;;;;33.15;24.15;;;;;;;3.44;100.00;95003.41;5064892;28;20456;-75
2022/02/16 03:01:35;;;;;;;32.90;23.90;;;;;;;3.32;100.00;94991.63;5049339;28;20024;-75
2022/02/16 03:04:00;;;;;;;32.63;23.23;;;;;;;3.53;100.00;94993.22;5064265;28;20050;-75
2022/02/16 03:06:25;;;;;;;33.95;24.00;;;;;;;3.60;100.00;94988.41;5066984;28;20103;-75
2022/02/16 03:08:51;;;;;;;30.98;24.20;;;;;;;3.70;100.00;94996.94;5065395;28;20489;-75
2022/02/16 03:11:19;;;;;;;33.38;23.15;;;;;;;3.52;100.00;94994.19;5049668;28;20497;-76
2022/02/16 03:13:47;;;;;;;31.40;22.27;;;;;;;3.77;100.00;94998.06;5067988;28;20520;-75
2022/02/16 03:16:13;;;;;;;27.13;22.13;;;;;;;3.66;100.00;94985.38;5064799;28;20142;-75
2022/02/16 03:18:38;;;;;;;28.70;22.35;;;;;;;3.59;100.00;94986.81;5066700;28;20025;-75
2022/02/16 03:21:03;;;;;;;30.00;23.48;;;;;;;3.24;100.00;94992.28;5081695;28;20062;-75
2022/02/16 03:23:29;;;;;;;31.05;22.67;;;;;;;3.05;100.00;94992.16;5066321;28;20413;-75
2022/02/16 03:25:54;;;;;;;30.75;23.77;;;;;;;3.07;100.00;95000.50;5065138;28;20017;-76
2022/02/16 03:28:20;;;;;;;29.83;22.52;;;;;;;2.74;100.00;95005.75;5066367;28;20024;-75
2022/02/16 03:30:45;;;;;;;33.28;23.70;;;;;;;2.58;100.00;95006.16;5067200;28;20023;-75
2022/02/16 03:33:11;;;;;;;27.55;20.70;;;;;;;2.31;100.00;95003.25;5065396;28;20448;-75
2022/02/16 03:35:36;;;;;;;25.35;18.23;;;;;;;2.09;100.00;95007.44;5066859;28;20048;-75
2022/02/16 03:38:02;;;;;;;24.75;18.30;;;;;;;2.24;100.00;95008.00;5064701;28;20060;-75
2022/02/16 03:40:29;;;;;;;26.02;19.02;;;;;;;2.77;100.00;95006.34;5066662;28;20024;-75
2022/02/16 03:42:55;;;;;;;31.20;22.15;;;;;;;2.01;100.00;95016.63;5064649;28;20031;-75
2022/02/16 03:45:21;;;;;;;38.35;24.60;;;;;;;1.80;100.00;95013.19;5067403;28;20028;-76
2022/02/16 03:47:46;;;;;;;37.60;26.35;;;;;;;1.83;100.00;95010.38;5069218;28;20017;-76
2022/02/16 03:50:12;;;;;;;43.53;26.88;;;;;;;1.54;100.00;95004.94;5069871;28;20021;-75
2022/02/16 03:52:38;;;;;;;38.63;26.85;;;;;;;1.20;100.00;95006.63;5069721;28;20025;-75
2022/02/16 03:55:04;;;;;;;40.13;26.20;;;;;;;1.31;100.00;95010.94;5068851;28;20048;-75
2022/02/16 03:57:32;;;;;;;41.40;27.42;;;;;;;1.04;100.00;95008.66;5069950;28;20040;-75
2022/02/16 03:59:57;;;;;;;39.10;27.08;;;;;;;1.37;100.00;95015.56;5069701;28;20017;-75
2022/02/16 04:02:22;;;;;;;37.63;24.83;;;;;;;1.48;100.00;95003.63;5069365;28;20463;-75
2022/02/16 04:04:48;;;;;;;37.58;25.40;;;;;;;1.92;100.00;95002.84;5068244;28;20334;-76
2022/02/16 04:07:13;;;;;;;40.38;26.38;;;;;;;1.93;100.00;94991.69;5069925;28;20494;-75
2022/02/16 04:09:39;;;;;;;33.67;25.17;;;;;;;1.94;100.00;94997.59;5069125;28;20437;-75
2022/02/16 04:12:05;;;;;;;39.22;26.73;;;;;;;2.29;100.00;94998.25;5068800;28;20173;-75
2022/02/16 04:14:30;;;;;;;34.65;24.90;;;;;;;2.38;100.00;95000.06;5069334;28;20604;-75
2022/02/16 04:16:56;;;;;;;37.63;25.50;;;;;;;2.46;100.00;94997.75;5068296;28;20107;-75
2022/02/16 04:19:21;;;;;;;38.55;24.48;;;;;;;2.54;100.00;94992.81;5069495;28;20047;-76
2022/02/16 04:21:47;;;;;;;39.33;26.25;;;;;;;2.75;100.00;94986.94;5067931;28;20120;-75
2022/02/16 04:24:12;;;;;;;38.47;25.17;;;;;;;2.96;100.00;94957.06;5069301;28;20040;-75
2022/02/16 04:26:38;;;;;;;38.03;25.35;;;;;;;2.46;100.00;94974.75;5068265;28;20086;-75
2022/02/16 04:29:03;;;;;;;36.42;25.98;;;;;;;2.46;100.00;94986.69;5070503;28;20623;-75
2022/02/16 04:31:28;;;;;;;27.55;20.65;;;;;;;1.71;100.00;94981.50;5068824;28;20174;-75
2022/02/16 04:33:54;;;;;;;27.10;17.60;;;;;;;1.49;100.00;94981.50;5069497;28;20031;-75
2022/02/16 04:36:28;;;;;;;21.77;18.98;;;;;;;1.88;100.00;94991.22;5069327;28;20064;-75
2022/02/16 04:38:58;;;;;;;35.53;25.13;;;;;;;2.58;100.00;94985.72;5067934;28;20482;-75
2022/02/16 04:41:24;;;;;;;31.58;23.33;;;;;;;2.32;100.00;94990.34;5069007;28;20025;-75
2022/02/16 04:43:49;;;;;;;33.35;23.15;;;;;;;2.20;100.00;94988.75;5067610;28;20043;-75
2022/02/16 04:46:16;;;;;;;33.40;24.27;;;;;;;2.22;100.00;94999.63;5086563;28;20024;-75
2022/02/16 04:48:41;;;;;;;37.05;26.70;;;;;;;2.22;100.00;94997.09;5068458;28;20528;-75
2022/02/16 04:51:07;;;;;;;38.70;27.35;;;;;;;2.22;100.00;94997.09;5068410;28;20055;-75
2022/02/16 04:53:32;;;;;;;34.70;25.77;;;;;;;2.15;100.00;94990.03;5068637;28;20020;-75
2022/02/16 04:56:02;;;;;;;30.63;22.55;;;;;;;2.26;100.00;94993.38;5067089;28;20108;-76
2022/02/16 04:58:27;;;;;;;34.55;24.35;;;;;;;1.99;100.00;94990.41;5070208;28;20035;-75
2022/02/16 05:00:53;;;;;;;31.95;24.10;;;;;;;2.17;100.00;94999.19;5067558;28;20032;-75
2022/02/16 05:03:19;;;;;;;34.03;23.85;;;;;;;2.33;100.00;94991.16;5051731;28;20024;-75
2022/02/16 05:05:45;;;;;;;34.05;23.98;;;;;;;2.45;100.00;94987.63;5067962;28;20079;-75
2022/02/16 05:08:10;;;;;;;34.97;24.15;;;;;;;2.51;100.00;94987.13;5068421;28;20040;-75
2022/02/16 05:10:35;;;;;;;36.05;24.80;;;;;;;2.49;100.00;94984.72;5067979;28;20090;-75
2022/02/16 05:13:01;;;;;;;35.75;24.40;;;;;;;2.53;100.00;94982.75;5083573;28;20101;-76
2022/02/16 05:15:26;;;;;;;31.95;22.08;;;;;;;2.72;100.00;94985.44;5068738;28;20444;-75
2022/02/16 05:17:52;;;;;;;33.53;25.02;;;;;;;2.64;100.00;94998.84;5068411;28;20514;-75
2022/02/16 05:20:17;;;;;;;42.33;27.40;;;;;;;2.66;100.00;94991.84;5068951;28;20024;-73
2022/02/16 05:22:43;;;;;;;58.30;31.13;;;;;;;2.65;100.00;94987.69;5066199;28;20032;-73
2022/02/16 05:25:08;;;;;;;42.65;28.88;;;;;;;2.59;100.00;94985.63;5068811;28;20036;-73
2022/02/16 05:27:34;;;;;;;43.50;29.38;;;;;;;2.46;100.00;94992.63;5067208;28;20040;-73
2022/02/16 05:29:59;;;;;;;43.03;30.52;;;;;;;2.53;100.00;94981.00;5067676;28;20043;-73
2022/02/16 05:32:24;;;;;;;39.45;27.92;;;;;;;2.40;100.00;94982.91;5067663;28;20651;-73
2022/02/16 05:34:50;;;;;;;36.90;24.58;;;;;;;2.61;100.00;94978.63;5066757;28;20055;-73
2022/02/16 05:37:15;;;;;;;37.42;26.75;;;;;;;2.63;100.00;94976.75;5069538;28;20067;-73
2022/02/16 05:39:41;;;;;;;39.08;27.02;;;;;;;2.61;100.00;94978.63;5083087;28;20119;-73
2022/02/16 05:42:07;;;;;;;36.97;27.23;;;;;;;2.67;100.00;94983.25;5067973;28;20024;-73
2022/02/16 05:44:34;;;;;;;36.75;26.70;;;;;;;2.71;100.00;94988.13;5066434;28;20074;-74
2022/02/16 05:47:00;;;;;;;36.90;27.02;;;;;;;2.79;100.00;94985.78;5067917;28;20111;-73
2022/02/16 05:49:26;;;;;;;39.13;27.10;;;;;;;2.84;100.00;94986.19;5067696;28;20032;-73
2022/02/16 05:51:51;;;;;;;37.65;26.13;;;;;;;2.84;100.00;94989.56;5066411;28;20027;-73
2022/02/16 05:54:17;;;;;;;33.85;24.40;;;;;;;3.14;100.00;94987.09;5068952;28;20064;-73
2022/02/16 05:56:42;;;;;;;45.88;25.23;;;;;;;3.06;100.00;94984.34;5067494;28;20497;-74
2022/02/16 05:59:11;;;;;;;32.00;23.67;;;;;;;3.01;100.00;94996.72;5084274;28;20390;-74
2022/02/16 06:01:37;;;;;;;29.40;22.30;;;;;;;3.02;100.00;94992.38;5066615;28;20075;-78
2022/02/16 06:04:03;;;;;;;39.17;24.27;;;;;;;3.07;100.00;94992.84;5055089;28;20039;-77
2022/02/16 06:06:28;;;;;;;40.33;28.58;;;;;;;3.16;100.00;94998.00;5068441;28;20489;-74
2022/02/16 06:08:53;;;;;;;40.47;28.27;;;;;;;3.21;100.00;95002.78;5066199;28;20027;-74
2022/02/16 06:11:19;;;;;;;40.53;30.20;;;;;;;3.24;100.00;94982.06;5066884;28;20406;-78
2022/02/16 06:13:44;;;;;;;39.05;27.35;;;;;;;3.19;100.00;94979.03;5065957;28;20049;-74
2022/02/16 06:16:10;;;;;;;35.90;27.05;;;;;;;3.40;100.00;94979.84;5067493;28;20067;-74
2022/02/16 06:18:35;;;;;;;29.92;21.67;;;;;;;3.30;100.00;94981.53;5065353;28;20107;-74
2022/02/16 06:21:01;;;;;;;27.00;22.17;;;;;;;3.47;100.00;94968.16;5067121;28;20024;-75
2022/02/16 06:23:26;;;;;;;26.70;21.65;;;;;;;3.31;100.00;94983.16;5081723;28;20031;-74
2022/02/16 06:25:51;;;;;;;32.95;24.55;;;;;;;3.40;100.00;94982.41;5068315;28;20072;-74
2022/02/16 06:28:17;;;;;;;37.28;24.25;;;;;;;3.46;100.00;94991.31;5066248;28;20040;-75
2022/02/16 06:30:42;;;;;;;34.97;23.65;;;;;;;3.45;100.00;94998.19;5067806;28;20107;-74
2022/02/16 06:33:08;;;;;;;38.97;24.10;;;;;;;3.93;100.00;94983.03;5066823;28;20048;-74
2022/02/16 06:35:34;;;;;;;37.10;22.38;;;;;;;4.15;100.00;94982.00;5056645;28;20032;-75
2022/02/16 06:38:00;;;;;;;25.75;20.15;;;;;;;4.13;100.00;94994.97;5058402;28;20028;-75
2022/02/16 06:40:27;;;;;;;27.92;19.55;;;;;;;4.27;100.00;94992.97;5065586;28;20451;-75
2022/02/16 06:42:53;;;;;;;25.02;18.70;;;;;;;4.39;100.00;94995.31;5066329;28;20180;-75
2022/02/16 06:45:19;;;;;;;27.98;20.42;;;;;;;4.42;100.00;94991.66;5064201;28;20056;-74
2022/02/16 06:47:45;;;;;;;33.33;23.23;;;;;;;4.59;100.00;94994.34;5066374;28;20469;-74
2022/02/16 06:50:11;;;;;;;36.75;24.10;;;;;;;4.63;100.00;95002.59;5066554;28;20028;-75
2022/02/16 06:52:36;;;;;;;44.08;27.45;;;;;;;4.78;100.00;95003.84;5063814;28;20048;-74
2022/02/16 06:55:02;;;;;;;47.30;29.48;;;;;;;4.70;100.00;95011.38;5066648;28;20028;-74
2022/02/16 06:57:27;;;;;;;39.25;27.30;;;;;;;4.97;100.00;95008.16;5064969;28;20020;-75
2022/02/16 06:59:52;;;;;;;35.22;24.27;;;;;;;5.20;100.00;94996.69;5065155;28;20086;-75
2022/02/16 07:02:18;;;;;;;28.10;21.42;;;;;;;5.13;99.41;94998.16;5048582;28;20116;-74
2022/02/16 07:04:44;;;;;;;26.15;19.35;;;;;;;5.32;99.11;94998.13;5061948;28;20062;-75
2022/02/16 07:07:09;;;;;;;32.40;24.27;;;;;;;5.10;100.00;94989.00;5060586;28;20059;-74
2022/02/16 07:09:34;;;;;;;36.55;24.50;;;;;;;5.36;99.05;94996.94;5061215;28;20044;-74
2022/02/16 07:12:00;;;;;;;29.48;23.15;;;;;;;5.58;97.42;94999.16;5044676;28;20456;-74
2022/02/16 07:14:25;;;;;;;33.35;26.85;;;;;;;6.26;95.85;94994.59;5060374;28;20132;-74
2022/02/16 07:16:51;;;;;;;33.90;24.45;;;;;;;6.94;92.11;94990.63;5052625;28;20025;-74
2022/02/16 07:19:19;;;;;;;34.50;25.67;;;;;;;6.63;90.63;94999.66;5051050;28;20091;-75
2022/02/16 07:21:45;;;;;;;30.65;23.40;;;;;;;6.88;90.86;94997.16;5048855;28;20124;-74
2022/02/16 07:24:11;;;;;;;22.52;19.35;;;;;;;6.96;91.53;94987.91;5061750;28;20115;-74
2022/02/16 07:26:37;;;;;;;21.80;19.45;;;;;;;7.28;89.56;94983.03;5066717;28;20577;-75
2022/02/16 07:29:03;;;;;;;26.52;22.15;;;;;;;7.17;89.59;94981.47;5056678;28;20021;-74
2022/02/16 07:31:29;;;;;;;24.98;20.17;;;;;;;8.88;82.85;94976.16;5060300;28;20020;-75
2022/02/16 07:33:55;;;;;;;24.42;20.30;;;;;;;8.33;82.39;94970.72;5065763;28;20044;-74
2022/02/16 07:36:20;;;;;;;23.90;17.23;;;;;;;7.29;84.81;94966.59;5063669;28;20032;-75
2022/02/16 07:38:45;;;;;;;19.13;16.88;;;;;;;7.00;91.49;94961.69;5054943;28;20115;-75
2022/02/16 07:41:11;;;;;;;21.58;17.77;;;;;;;6.34;95.82;94959.50;5043618;28;20488;-74
2022/02/16 07:43:36;;;;;;;23.20;18.92;;;;;;;6.58;94.76;94963.28;5055809;28;20033;-74
2022/02/16 07:46:02;;;;;;;26.02;19.60;;;;;;;6.90;93.41;94961.78;5054955;28;20036;-74
2022/02/16 07:48:27;;;;;;;23.60;19.13;;;;;;;7.72;90.38;94961.41;5066047;28;20465;-75
2022/02/16 07:50:53;;;;;;;22.45;17.98;;;;;;;8.08;86.68;94963.81;5064051;28;20443;-75
2022/02/16 07:53:18;;;;;;;23.90;18.80;;;;;;;11.71;67.63;94949.91;5030052;28;20017;-75
2022/02/16 07:55:44;;;;;;;23.92;21.25;;;;;;;11.82;61.27;94952.03;5048684;28;20025;-75
2022/02/16 07:58:09;;;;;;;23.83;18.33;;;;;;;14.34;51.20;94955.09;5046556;28;20021;-74
2022/02/16 08:00:37;;;;;;;21.77;17.35;;;;;;;14.59;51.67;94956.22;5048795;28;20025;-75
2022/02/16 08:03:07;;;;;;;22.42;19.52;;;;;;;14.97;49.83;94952.09;5047931;28;20029;-74
2022/02/16 08:05:33;;;;;;;25.15;19.65;;;;;;;14.32;51.79;94951.88;5035349;28;20041;-75
2022/02/16 08:07:58;;;;;;;25.38;19.23;;;;;;;13.34;55.27;94952.00;5062450;28;20486;-75
2022/02/16 08:10:24;;;;;;;19.85;17.38;;;;;;;11.19;60.57;94959.41;5032743;28;20407;-74
2022/02/16 08:12:58;;;;;;;23.73;18.20;;;;;;;10.56;64.34;94944.97;5063595;28;20056;-75
2022/02/16 08:15:29;;;;;;;27.92;21.83;;;;;;;10.21;71.04;94943.66;5050483;28;20056;-75
2022/02/16 08:17:55;;;;;;;27.23;20.77;;;;;;;10.89;69.79;94938.56;5068055;28;20415;-74
2022/02/16 08:20:21;;;;;;;21.70;18.63;;;;;;;11.98;61.69;94933.72;5067629;28;20028;-74
2022/02/16 08:22:46;;;;;;;22.88;20.48;;;;;;;13.36;56.15;94924.00;5067615;28;20028;-74
2022/02/16 08:25:12;;;;;;;21.10;19.00;;;;;;;13.47;55.22;94931.31;5067288;28;20086;-75
2022/02/16 08:27:38;;;;;;;20.15;17.25;;;;;;;14.69;50.14;94925.38;5067156;28;20109;-74
2022/02/16 08:30:04;;;;;;;20.15;18.17;;;;;;;14.17;51.85;94918.91;5068030;28;20020;-75
2022/02/16 08:32:30;;;;;;;19.67;17.75;;;;;;;16.17;46.56;94923.19;5065381;28;20047;-74
2022/02/16 08:34:56;;;;;;;19.33;17.27;;;;;;;15.89;46.54;94931.31;5067956;28;20029;-74
2022/02/16 08:37:21;;;;;;;18.75;16.90;;;;;;;16.94;46.43;94924.88;5065995;28;20031;-74
2022/02/16 08:39:47;;;;;;;21.25;18.77;;;;;;;17.17;46.20;94922.53;5067821;28;20021;-74
2022/02/16 08:42:12;;;;;;;20.48;18.50;;;;;;;17.24;44.65;94926.69;5067491;28;20070;-74
2022/02/16 08:44:38;;;;;;;18.38;16.58;;;;;;;16.73;44.70;94926.00;5049577;28;20035;-75
2022/02/16 08:47:04;;;;;;;19.20;17.23;;;;;;;12.37;52.95;94924.78;5067126;28;20032;-74
2022/02/16 08:49:30;;;;;;;20.40;18.33;;;;;;;14.43;51.12;94938.31;5066041;28;20033;-73
2022/02/16 08:51:55;;;;;;;19.00;16.98;;;;;;;14.29;48.45;94929.59;5067554;28;20453;-74
2022/02/16 08:54:21;;;;;;;18.83;16.92;;;;;;;13.04;55.12;94931.31;5065678;28;20052;-73
2022/02/16 08:56:46;;;;;;;18.90;16.88;;;;;;;13.47;51.78;94928.69;5069034;28;20441;-74
2022/02/16 08:59:15;;;;;;;20.83;17.10;;;;;;;13.42;52.35;94921.44;5065555;28;20553;-74
2022/02/16 09:01:41;;;;;;;19.87;17.73;;;;;;;13.46;51.90;94914.88;5050721;28;20127;-74
2022/02/16 09:04:07;;;;;;;22.33;16.67;;;;;;;13.45;51.81;94913.25;5066317;28;20115;-74
2022/02/16 09:06:33;;;;;;;19.05;16.67;;;;;;;14.17;49.73;94911.09;5056586;28;20368;-74
2022/02/16 09:08:59;;;;;;;20.42;16.63;;;;;;;13.64;50.41;94912.63;5063883;28;20035;-74
2022/02/16 09:11:26;;;;;;;17.45;15.50;;;;;;;12.37;54.68;94906.63;5062082;28;20033;-74
2022/02/16 09:13:52;;;;;;;15.38;13.75;;;;;;;11.75;56.34;94912.22;5046826;28;20056;-73
2022/02/16 09:16:18;;;;;;;17.67;14.98;;;;;;;12.70;54.48;94907.78;5062097;28;20029;-73
2022/02/16 09:18:43;;;;;;;18.35;14.65;;;;;;;13.01;53.64;94897.06;5046705;28;20021;-74
2022/02/16 09:21:09;;;;;;;15.10;13.57;;;;;;;12.84;52.03;94891.34;5046166;28;20482;-74
2022/02/16 09:23:36;;;;;;;16.33;13.82;;;;;;;12.25;54.20;94895.91;5046208;28;20036;-73
2022/02/16 09:26:05;;;;;;;16.33;13.70;;;;;;;13.64;50.13;94897.00;5063321;28;20025;-74
2022/02/16 09:28:31;;;;;;;17.63;15.02;;;;;;;10.85;56.32;94900.25;5061862;28;20540;-77
2022/02/16 09:30:57;;;;;;;15.05;13.50;;;;;;;13.03;52.86;94898.53;5046996;28;20040;-74
2022/02/16 09:33:24;;;;;;;17.00;13.90;;;;;;;12.43;54.38;94893.72;5061333;28;20116;-74
2022/02/16 09:35:49;;;;;;;14.00;12.55;;;;;;;11.60;56.11;94883.66;5030295;28;20082;-74
2022/02/16 09:38:14;;;;;;;16.45;14.13;;;;;;;11.10;57.02;94881.75;5061853;28;20017;-76
2022/02/16 09:40:45;;;;;;;14.57;13.07;;;;;;;12.83;53.88;94887.13;5046400;28;20067;-75
2022/02/16 09:43:12;;;;;;;15.30;12.45;;;;;;;12.36;53.83;94873.88;5045038;28;20098;-75
2022/02/16 09:45:37;;;;;;;16.70;14.90;;;;;;;13.07;53.47;94873.72;5028698;28;20028;-75
2022/02/16 09:48:04;;;;;;;17.05;13.50;;;;;;;12.99;52.61;94876.47;5046438;28;20021;-75
2022/02/16 09:50:29;;;;;;;18.67;15.00;;;;;;;12.49;54.54;94874.00;5044546;28;20025;-74
2022/02/16 09:52:55;;;;;;;16.42;13.05;;;;;;;12.52;53.48;94868.44;5063217;28;20036;-74
2022/02/16 09:55:20;;;;;;;14.20;12.75;;;;;;;12.12;54.11;94862.00;5046231;28;20025;-74
2022/02/16 09:57:46;;;;;;;17.83;14.38;;;;;;;11.00;57.26;94859.63;5045992;28;20433;-76
2022/02/16 10:00:15;;;;;;;19.25;14.25;;;;;;;11.45;57.84;94866.50;5060725;28;20062;-74
2022/02/16 10:02:43;;;;;;;18.00;14.15;;;;;;;10.76;59.03;94865.81;5056741;28;20039;-74
2022/02/16 10:05:09;;;;;;;19.63;14.88;;;;;;;11.10;60.67;94863.59;5040192;28;20182;-74
2022/02/16 10:07:39;;;;;;;15.68;13.45;;;;;;;10.76;61.71;94865.00;5063158;28;20029;-74
2022/02/16 10:10:15;;;;;;;18.33;15.30;;;;;;;10.52;61.96;94861.63;5047134;28;20577;-75
2022/02/16 10:12:44;;;;;;;18.08;15.27;;;;;;;10.42;59.95;94855.88;5043248;28;20563;-75
2022/02/16 10:15:12;;;;;;;18.55;15.00;;;;;;;10.32;61.86;94841.53;5043966;28;20064;-75
2022/02/16 10:17:37;;;;;;;18.15;15.32;;;;;;;10.25;62.48;94840.59;5043615;28;20486;-75
2022/02/16 10:20:05;;;;;;;16.88;15.07;;;;;;;10.16;63.40;94833.88;5042635;28;20029;-74
2022/02/16 10:22:49;;;;;;;23.85;15.57;;;;;;;10.37;62.58;94837.44;5043233;28;20079;-74
2022/02/16 10:25:29;;;;;;;17.85;14.48;;;;;;;11.05;60.38;94826.22;5025877;28;20503;-75
2022/02/16 10:28:14;;;;;;;;;;;;;;;10.46;62.37;94836.44;5027805;28;20513;-74
2022/02/16 10:31:03;;;;;;;21.95;16.10;;;;;;;10.27;62.84;94831.72;5060089;28;19982;-75
2022/02/16 10:33:33;;;;;;;22.80;14.85;;;;;;;10.77;62.28;94836.34;5043607;28;20036;-75
2022/02/16 10:36:08;;;;;;;20.33;15.45;;;;;;;10.26;63.80;94835.25;5045868;28;20021;-75
2022/02/16 10:38:56;;;;;;;18.00;16.02;;;;;;;10.35;62.95;94830.81;5044176;28;20036;-75
2022/02/16 10:41:27;;;;;;;17.52;15.15;;;;;;;10.46;62.91;94831.25;5045172;28;20025;-74
2022/02/16 10:43:53;;;;;;;17.60;14.90;;;;;;;10.23;63.20;94821.84;5044834;28;20044;-76
2022/02/16 10:46:23;;;;;;;21.85;15.30;;;;;;;10.53;62.54;94818.41;5027769;28;20423;-74
2022/02/16 10:49:12;;;;;;;19.95;15.25;;;;;;;10.47;62.25;94812.13;5045751;28;20481;-74
2022/02/16 10:51:39;;;;;;;18.55;15.63;;;;;;;10.79;62.72;94805.88;5045912;28;20478;-74
2022/02/16 10:54:14;;;;;;;22.42;16.30;;;;;;;10.86;62.50;94809.38;5044860;28;20032;-74
2022/02/16 10:56:41;;;;;;;19.00;16.33;;;;;;;10.86;61.32;94803.38;5045138;28;20037;-74
2022/02/16 10:59:07;;;;;;;19.48;14.95;;;;;;;11.01;62.24;94805.03;5043984;28;20025;-74
2022/02/16 11:01:34;;;;;;;19.60;14.10;;;;;;;11.40;60.32;94793.59;5045885;28;20031;-74
2022/02/16 11:04:03;;;;;;;17.88;15.70;;;;;;;11.61;59.40;94778.13;5043266;28;20119;-74
2022/02/16 11:06:29;;;;;;;18.40;14.50;;;;;;;10.69;60.49;94792.38;5045790;28;20406;-75
2022/02/16 11:08:55;;;;;;;17.25;15.43;;;;;;;11.05;60.27;94774.38;5043858;28;20028;-75
2022/02/16 11:11:21;;;;;;;18.48;15.30;;;;;;;10.53;62.01;94766.63;5044450;28;20025;-75
2022/02/16 11:13:46;;;;;;;18.70;16.27;;;;;;;10.96;61.92;94759.91;5044092;28;20527;-74
2022/02/16 11:16:13;;;;;;;16.88;14.85;;;;;;;11.22;60.33;94756.88;5048345;28;20063;-74